Time;durP1;ratioP1;P1;durP2;ratioP2;P2;SDS_P1;SDS_P2;PMS_P1;PMS_P2;Temp;Humidity;BMP_temperature;BMP_pressure;BME280_temperature;BME280_humidity;BME280_pressure;Samples;Min_cycle;Max_cycle;Signal;HPM_P1;HPM_P2
2021/12/30 00:02:05;;;;;;;;;;;;;;;5.23;59.46;99624.72;4439652;32;20325;-90
2021/12/30 00:04:31;;;;;;;;;;;;;;;5.27;59.47;99628.09;4453610;32;19973;-90
2021/12/30 00:06:56;;;;;;;;;;;;;;;5.21;59.46;99626.47;4453749;32;19989;-91
2021/12/30 00:09:21;;;;;;;;;;;;;;;5.22;59.46;99626.44;4440861;32;20048;-92
2021/12/30 00:11:47;;;;;;;;;;;;;;;4.97;59.45;99632.75;4427708;32;19989;-91
2021/12/30 00:14:12;;;;;;;;;;;;;;;4.89;59.45;99637.13;4440680;32;20009;-91
2021/12/30 00:16:37;;;;;;;;;;;;;;;5.17;59.47;99638.50;4427897;32;19996;-94
2021/12/30 00:19:03;;;;;;;;;;;;;;;5.10;59.46;99651.50;4429567;32;20040;-93
2021/12/30 00:21:28;;;;;;;;;;;;;;;5.04;59.46;99647.28;4429167;32;19989;-93
2021/12/30 00:23:53;;;;;;;;;;;;;;;5.12;59.46;99650.63;4429018;32;19997;-93
2021/12/30 00:26:18;;;;;;;;;;;;;;;5.13;59.46;99638.56;4441558;32;20317;-93
2021/12/30 00:28:44;;;;;;;;;;;;;;;5.30;59.47;99646.97;4441742;32;20011;-94
2021/12/30 00:31:09;;;;;;;;;;;;;;;5.16;59.46;99646.28;4428808;32;20357;-92
2021/12/30 00:33:34;;;;;;;;;;;;;;;5.30;59.47;99662.47;4429023;32;19991;-94
2021/12/30 00:36:06;;;;;;;;;;;;;;;5.40;59.48;99665.78;4428943;32;20020;-93
2021/12/30 00:38:32;;;;;;;;;;;;;;;5.38;59.47;99675.25;4441702;32;20019;-92
2021/12/30 00:40:57;;;;;;;;;;;;;;;5.42;59.48;99674.34;4440649;32;19993;-93
2021/12/30 00:43:22;;;;;;;;;;;;;;;5.51;59.48;99666.50;4428227;32;20310;-93
2021/12/30 00:45:48;;;;;;;;;;;;;;;5.57;59.49;99669.00;4427681;32;20034;-91
2021/12/30 00:48:13;;;;;;;;;;;;;;;5.57;59.49;99674.16;4427416;32;20238;-91
2021/12/30 00:50:39;;;;;;;;;;;;;;;5.63;59.49;99671.50;4427385;32;19992;-92
2021/12/30 00:53:04;;;;;;;;;;;;;;;5.65;59.49;99682.66;4439963;32;20041;-92
2021/12/30 00:55:30;;;;;;;;;;;;;;;5.53;59.49;99683.69;4440581;32;20040;-93
2021/12/30 00:57:55;;;;;;;;;;;;;;;5.55;59.49;99688.81;4440577;32;20000;-91
2021/12/30 01:00:20;;;;;;;;;;;;;;;5.49;59.48;99696.66;4426984;32;20326;-90
2021/12/30 01:02:45;;;;;;;;;;;;;;;5.46;59.49;99700.12;4439694;32;20482;-91
2021/12/30 01:05:11;;;;;;;;;;;;;;;5.56;59.49;99708.59;4427021;32;19989;-91
2021/12/30 01:07:36;;;;;;;;;;;;;;;5.38;59.47;99707.09;4427016;32;19997;-92
2021/12/30 01:10:02;;;;;;;;;;;;;;;5.60;59.48;99705.09;4427359;32;20609;-91
2021/12/30 01:12:28;;;;;;;;;;;;;;;5.72;59.49;99699.78;4440200;32;19977;-91
2021/12/30 01:14:53;;;;;;;;;;;;;;;5.65;59.49;99697.28;4427593;32;19981;-90
2021/12/30 01:17:25;;;;;;;;;;;;;;;5.62;59.50;99705.94;4428305;32;19997;-94
2021/12/30 01:19:51;;;;;;;;;;;;;;;5.59;59.49;99703.41;4429077;32;19995;-94
2021/12/30 01:22:23;;;;;;;;;;;;;;;5.69;59.50;99704.16;4429000;32;19985;-94
2021/12/30 01:24:49;;;;;;;;;;;;;;;5.70;59.50;99711.03;4441352;32;20536;-95
2021/12/30 01:27:14;;;;;;;;;;;;;;;5.54;59.49;99725.84;4427220;32;20015;-92
2021/12/30 01:29:39;;;;;;;;;;;;;;;5.62;59.49;99723.16;4428090;32;19978;-94
2021/12/30 01:32:04;;;;;;;;;;;;;;;5.33;59.48;99723.50;4429134;32;19997;-95
2021/12/30 01:34:31;;;;;;;;;;;;;;;5.48;59.48;99715.59;4429010;32;20040;-94
2021/12/30 01:37:00;;;;;;;;;;;;;;;5.62;59.49;99721.44;4429100;32;20024;-94
2021/12/30 01:39:25;;;;;;;;;;;;;;;5.59;59.49;99718.03;4429417;32;20041;-94
2021/12/30 01:41:51;;;;;;;;;;;;;;;5.54;59.49;99720.69;4429883;32;19989;-95
2021/12/30 01:44:16;;;;;;;;;;;;;;;5.65;59.49;99720.53;4430239;32;20008;-95
2021/12/30 01:46:42;;;;;;;;;;;;;;;5.68;59.50;99721.38;4443496;32;20034;-96
2021/12/30 01:49:08;;;;;;;;;;;;;;;5.41;59.48;99721.69;4445196;32;19981;-96
2021/12/30 01:51:33;;;;;;;;;;;;;;;5.65;59.49;99723.12;4430804;32;19969;-94
2021/12/30 01:53:59;;;;;;;;;;;;;;;5.71;59.50;99723.91;4431320;32;20314;-95
2021/12/30 01:56:24;;;;;;;;;;;;;;;5.63;59.49;99730.88;4428928;32;20001;-94
2021/12/30 01:58:49;;;;;;;;;;;;;;;5.55;59.49;99735.31;4441974;32;19989;-95
2021/12/30 02:01:15;;;;;;;;;;;;;;;5.72;59.50;99732.53;4428326;32;19981;-94
2021/12/30 02:03:40;;;;;;;;;;;;;;;5.63;59.49;99719.69;4428668;32;20028;-95
2021/12/30 02:06:22;;;;;;;;;;;;;;;5.35;59.47;99719.19;4428598;32;20032;-96
2021/12/30 02:08:47;;;;;;;;;;;;;;;5.47;59.48;99713.88;4441283;32;19977;-95
2021/12/30 02:11:12;;;;;;;;;;;;;;;5.68;59.50;99723.97;4428492;32;20014;-95
2021/12/30 02:13:37;;;;;;;;;;;;;;;5.77;59.50;99720.41;4428570;32;19990;-96
2021/12/30 02:16:03;;;;;;;;;;;;;;;5.76;59.50;99722.12;4428363;32;20277;-95
2021/12/30 02:18:28;;;;;;;;;;;;;;;5.65;59.49;99720.53;4428491;32;20013;-95
2021/12/30 02:20:54;;;;;;;;;;;;;;;5.56;59.49;99713.75;4441088;32;20010;-94
2021/12/30 02:23:32;;;;;;;;;;;;;;;5.43;59.48;99722.53;4441382;32;20004;-96
2021/12/30 02:25:59;;;;;;;;;;;;;;;5.75;59.49;99720.41;4440633;32;20068;-93
2021/12/30 02:28:25;;;;;;;;;;;;;;;5.92;59.51;99727.13;4440880;32;19959;-94
2021/12/30 02:30:50;;;;;;;;;;;;;;;5.93;59.51;99734.00;4440978;32;19985;-94
2021/12/30 02:33:16;;;;;;;;;;;;;;;5.91;59.51;99727.97;4440429;32;19985;-94
2021/12/30 02:35:41;;;;;;;;;;;;;;;6.07;59.52;99732.06;4427829;32;20001;-94
2021/12/30 02:38:06;;;;;;;;;;;;;;;5.77;59.50;99720.41;4427751;32;19981;-94
2021/12/30 02:40:35;;;;;;;;;;;;;;;5.61;59.48;99724.03;4429911;32;20005;-94
2021/12/30 02:43:00;;;;;;;;;;;;;;;5.70;59.50;99711.87;4443265;32;19993;-93
2021/12/30 02:45:26;;;;;;;;;;;;;;;5.81;59.50;99709.16;4430521;32;20031;-96
2021/12/30 02:47:51;;;;;;;;;;;;;;;5.60;59.48;99701.66;4443076;32;20014;-94
2021/12/30 02:50:16;;;;;;;;;;;;;;;5.53;59.49;99704.34;4429853;32;19985;-95
2021/12/30 02:52:42;;;;;;;;;;;;;;;5.72;59.50;99711.84;4430069;32;19982;-95
2021/12/30 02:55:07;;;;;;;;;;;;;;;5.63;59.49;99717.97;4430586;32;20014;-94
2021/12/30 02:57:32;;;;;;;;;;;;;;;5.65;59.49;99718.81;4443650;32;19977;-95
2021/12/30 02:59:57;;;;;;;;;;;;;;;5.60;59.48;99712.84;4430733;32;20019;-95
2021/12/30 03:02:22;;;;;;;;;;;;;;;5.53;59.49;99717.25;4430899;32;19989;-95
2021/12/30 03:04:48;;;;;;;;;;;;;;;5.52;59.48;99719.84;4430966;32;19997;-95
2021/12/30 03:07:18;;;;;;;;;;;;;;;5.46;59.48;99717.34;4431619;32;19973;-95
2021/12/30 03:09:43;;;;;;;;;;;;;;;5.64;59.49;99716.25;4431944;32;19977;-92
2021/12/30 03:12:09;;;;;;;;;;;;;;;5.72;59.50;99732.53;4410923;32;794635;-93
2021/12/30 03:14:37;;;;;;;;;;;;;;;5.77;59.50;99735.88;4425516;32;19989;-94
2021/12/30 03:17:03;;;;;;;;;;;;;;;5.61;59.49;99735.22;4443511;32;19973;-94
2021/12/30 03:19:28;;;;;;;;;;;;;;;5.78;59.50;99728.13;4429492;32;20356;-93
2021/12/30 03:21:55;;;;;;;;;;;;;;;5.66;59.49;99725.69;4429286;32;20020;-94
2021/12/30 03:24:20;;;;;;;;;;;;;;;5.68;59.50;99726.53;4429266;32;19972;-95
2021/12/30 03:26:46;;;;;;;;;;;;;;;5.65;59.49;99726.56;4428453;32;20001;-94
2021/12/30 03:29:11;;;;;;;;;;;;;;;5.78;59.50;99741.03;4428910;32;19999;-94
2021/12/30 03:31:36;;;;;;;;;;;;;;;5.69;59.50;99727.41;4429062;32;20034;-95
2021/12/30 03:34:01;;;;;;;;;;;;;;;5.46;59.49;99736.28;4441614;32;20038;-94
2021/12/30 03:36:27;;;;;;;;;;;;;;;5.36;59.47;99742.37;4430374;32;20000;-96
2021/12/30 03:38:54;;;;;;;;;;;;;;;5.47;59.48;99730.22;4431859;32;20234;-95
2021/12/30 03:41:21;;;;;;;;;;;;;;;5.62;59.49;99728.31;4432929;32;20026;-93
2021/12/30 03:43:46;;;;;;;;;;;;;;;5.63;59.49;99740.34;4445503;32;19997;-93
2021/12/30 03:46:11;;;;;;;;;;;;;;;5.82;59.50;99739.25;4431287;32;19999;-94
2021/12/30 03:48:41;;;;;;;;;;;;;;;5.69;59.50;99746.31;4430490;32;19988;-94
2021/12/30 03:51:09;;;;;;;;;;;;;;;5.72;59.50;99753.19;4430580;32;20813;-95
2021/12/30 03:53:38;;;;;;;;;;;;;;;5.97;59.51;99756.34;4430745;32;19997;-94
2021/12/30 03:56:12;;;;;;;;;;;;;;;5.98;59.50;99763.22;4443031;32;19999;-95
2021/12/30 03:58:39;;;;;;;;;;;;;;;6.04;59.51;99765.72;4443316;32;19984;-94
2021/12/30 04:01:04;;;;;;;;;;;;;;;5.90;59.50;99765.00;4443295;32;20008;-94
2021/12/30 04:03:29;;;;;;;;;;;;;;;5.93;59.51;99770.16;4430053;32;19997;-93
2021/12/30 04:05:54;;;;;;;;;;;;;;;5.97;59.51;99766.66;4430844;32;19981;-93
2021/12/30 04:08:20;;;;;;;;;;;;;;;5.93;59.51;99757.25;4430188;32;20001;-92
2021/12/30 04:10:46;;;;;;;;;;;;;;;5.82;59.50;99750.44;4441979;32;20031;-91
2021/12/30 04:13:11;;;;;;;;;;;;;;;5.86;59.50;99756.44;4429074;32;20028;-91
2021/12/30 04:15:36;;;;;;;;;;;;;;;5.83;59.51;99770.25;4428674;32;20250;-90
2021/12/30 04:18:02;;;;;;;;;;;;;;;5.90;59.50;99772.78;4428794;32;20018;-90
2021/12/30 04:20:27;;;;;;;;;;;;;;;5.70;59.50;99773.00;4428038;32;20026;-90
2021/12/30 04:22:52;;;;;;;;;;;;;;;5.53;59.49;99783.50;4428495;32;20020;-91
2021/12/30 04:25:18;;;;;;;;;;;;;;;5.62;59.49;99785.97;4428242;32;19996;-92
2021/12/30 04:27:43;;;;;;;;;;;;;;;5.52;59.48;99805.91;4430115;32;20005;-94
2021/12/30 04:30:15;;;;;;;;;;;;;;;5.51;59.48;99808.50;4466023;32;20103;-94
2021/12/30 04:32:40;;;;;;;;;;;;;;;5.62;59.49;99801.47;4445925;32;20657;-94
2021/12/30 04:35:12;;;;;;;;;;;;;;;5.56;59.49;99804.13;4430358;32;19981;-92
2021/12/30 04:37:38;;;;;;;;;;;;;;;5.48;59.48;99804.22;4443247;32;19993;-93
2021/12/30 04:40:04;;;;;;;;;;;;;;;5.63;59.49;99803.19;4430414;32;19989;-93
2021/12/30 04:42:29;;;;;;;;;;;;;;;5.68;59.50;99814.34;4444712;32;20008;-94
2021/12/30 04:44:57;;;;;;;;;;;;;;;5.72;59.49;99823.75;4431049;32;20011;-93
2021/12/30 04:47:23;;;;;;;;;;;;;;;5.79;59.50;99827.97;4443207;32;19981;-94
2021/12/30 04:49:49;;;;;;;;;;;;;;;5.67;59.49;99835.84;4430443;32;20019;-93
2021/12/30 04:52:14;;;;;;;;;;;;;;;5.69;59.50;99836.72;4429345;32;20010;-93
2021/12/30 04:54:40;;;;;;;;;;;;;;;5.77;59.50;99845.22;4429375;32;20025;-92
2021/12/30 04:57:05;;;;;;;;;;;;;;;5.84;59.51;99841.69;4428792;32;20009;-93
2021/12/30 05:02:18;;;;;;;;;;;;;;;6.06;59.52;99862.16;4437686;32;20045;-94
2021/12/30 05:04:44;;;;;;;;;;;;;;;5.86;59.50;99870.09;4431503;32;19989;-94
2021/12/30 05:07:09;;;;;;;;;;;;;;;6.01;59.51;99869.09;4431586;32;20006;-94
2021/12/30 05:09:34;;;;;;;;;;;;;;;6.07;59.52;99876.78;4431420;32;19985;-95
2021/12/30 05:12:00;;;;;;;;;;;;;;;6.06;59.52;99882.81;4433100;32;19993;-94
2021/12/30 05:14:25;;;;;;;;;;;;;;;5.96;59.51;99907.91;4431300;32;20310;-95
2021/12/30 05:16:52;;;;;;;;;;;;;;;5.98;59.51;99919.09;4429665;32;19991;-94
2021/12/30 05:19:17;;;;;;;;;;;;;;;5.98;59.50;99923.41;4442339;32;20011;-94
2021/12/30 05:21:42;;;;;;;;;;;;;;;5.98;59.51;99921.66;4429570;32;20522;-95
2021/12/30 05:24:07;;;;;;;;;;;;;;;6.15;59.52;99917.19;4429542;32;19973;-94
2021/12/30 05:26:33;;;;;;;;;;;;;;;6.13;59.51;99928.38;4429773;32;19977;-96
2021/12/30 05:28:58;;;;;;;;;;;;;;;6.01;59.51;99924.22;4429996;32;20035;-95
2021/12/30 05:31:24;;;;;;;;;;;;;;;6.09;59.52;99924.97;4429704;32;20718;-93
2021/12/30 05:33:49;;;;;;;;;;;;;;;6.10;59.52;99929.28;4442282;32;19996;-93
2021/12/30 05:36:15;;;;;;;;;;;;;;;6.07;59.52;99925.87;4432084;32;19969;-95
2021/12/30 05:38:41;;;;;;;;;;;;;;;6.09;59.52;99921.53;4430618;32;20000;-95
2021/12/30 05:41:06;;;;;;;;;;;;;;;5.98;59.50;99928.56;4429029;32;20097;-93
2021/12/30 05:43:31;;;;;;;;;;;;;;;6.18;59.52;99936.97;4440320;32;19969;-92
2021/12/30 05:45:56;;;;;;;;;;;;;;;6.09;59.52;99943.06;4426453;32;20039;-90
2021/12/30 05:48:22;;;;;;;;;;;;;;;6.02;59.51;99938.00;4426115;32;20004;-88
2021/12/30 05:50:47;;;;;;;;;;;;;;;6.20;59.53;99945.56;4452900;32;20223;-90
2021/12/30 05:53:12;;;;;;;;;;;;;;;6.10;59.51;99939.59;4427255;32;19991;-92
2021/12/30 05:55:37;;;;;;;;;;;;;;;6.13;59.51;99936.12;4427568;32;20004;-92
2021/12/30 05:58:03;;;;;;;;;;;;;;;6.36;59.53;99928.97;4439942;32;20016;-90
2021/12/30 06:00:28;;;;;;;;;;;;;;;6.44;59.54;99932.34;4427299;32;20029;-91
2021/12/30 06:02:53;;;;;;;;;;;;;;;6.41;59.53;99934.13;4440055;32;19977;-91
2021/12/30 06:05:19;;;;;;;;;;;;;;;6.36;59.53;99928.97;4427058;32;19994;-90
2021/12/30 06:07:44;;;;;;;;;;;;;;;6.39;59.53;99934.13;4426903;32;20011;-92
2021/12/30 06:10:09;;;;;;;;;;;;;;;6.30;59.52;99954.91;4427015;32;20105;-91
2021/12/30 06:12:35;;;;;;;;;;;;;;;6.29;59.53;99973.03;4440211;32;19977;-93
2021/12/30 06:15:00;;;;;;;;;;;;;;;6.19;59.52;99980.03;4456337;32;20029;-92
2021/12/30 06:17:26;;;;;;;;;;;;;;;6.26;59.52;99973.06;4429313;32;20028;-91
2021/12/30 06:19:51;;;;;;;;;;;;;;;6.34;59.53;99971.22;4428289;32;20008;-92
2021/12/30 06:22:16;;;;;;;;;;;;;;;6.30;59.53;99977.31;4428927;32;20001;-92
2021/12/30 06:24:41;;;;;;;;;;;;;;;6.44;59.53;99978.03;4429077;32;20042;-92
2021/12/30 06:27:07;;;;;;;;;;;;;;;6.43;59.54;99974.59;4441643;32;20052;-91
2021/12/30 06:29:33;;;;;;;;;;;;;;;6.42;59.53;99979.78;4441424;32;20329;-89
2021/12/30 06:31:58;;;;;;;;;;;;;;;6.35;59.52;99991.91;4428433;32;20048;-93
2021/12/30 06:34:23;;;;;;;;;;;;;;;6.43;59.54;99995.28;4428721;32;20316;-93
2021/12/30 06:36:48;;;;;;;;;;;;;;;6.44;59.54;99999.56;4442010;32;20321;-92
2021/12/30 06:39:14;;;;;;;;;;;;;;;6.52;59.54;100002.06;4441499;32;19989;-92
2021/12/30 06:41:39;;;;;;;;;;;;;;;6.46;59.54;100005.56;4429087;32;20001;-92
2021/12/30 06:44:04;;;;;;;;;;;;;;;6.50;59.53;100010.72;4428449;32;20305;-92
2021/12/30 06:46:30;;;;;;;;;;;;;;;6.37;59.53;100018.59;4441690;32;20035;-93
2021/12/30 06:48:55;;;;;;;;;;;;;;;6.42;59.52;100019.41;4428178;32;20042;-93
2021/12/30 06:51:23;;;;;;;;;;;;;;;6.41;59.53;100030.63;4429053;32;20391;-92
2021/12/30 06:53:48;;;;;;;;;;;;;;;6.39;59.54;100041.88;4442349;32;19995;-94
2021/12/30 06:56:13;;;;;;;;;;;;;;;6.50;59.53;100049.50;4428762;32;20341;-93
2021/12/30 06:58:38;;;;;;;;;;;;;;;6.43;59.54;100064.22;4428867;32;19985;-94
2021/12/30 07:01:04;;;;;;;;;;;;;;;6.45;59.54;100084.03;4429437;32;20012;-94
2021/12/30 07:03:29;;;;;;;;;;;;;;;6.44;59.54;100084.91;4429906;32;19985;-94
2021/12/30 07:05:55;;;;;;;;;;;;;;;6.41;59.53;100091.84;4429670;32;19989;-94
2021/12/30 07:08:20;;;;;;;;;;;;;;;6.39;59.53;100083.25;4429575;32;20042;-94
2021/12/30 07:10:45;;;;;;;;;;;;;;;6.37;59.53;100078.06;4442373;32;19973;-94
2021/12/30 07:13:11;;;;;;;;;;;;;;;6.38;59.53;100066.84;4429709;32;20016;-93
2021/12/30 07:15:36;;;;;;;;;;;;;;;6.23;59.53;100074.75;4429679;32;19973;-94
2021/12/30 07:18:01;;;;;;;;;;;;;;;6.29;59.53;100076.44;4429857;32;20703;-94
2021/12/30 07:20:26;;;;;;;;;;;;;;;6.05;59.50;100069.75;4429489;32;19981;-95
2021/12/30 07:22:52;;;;;;;;;;;;;;;6.32;59.53;100072.06;4429309;32;20000;-92
2021/12/30 07:25:17;;;;;;;;;;;;;;;6.31;59.52;100072.94;4428822;32;19989;-93
2021/12/30 07:27:43;;;;;;;;;;;;;;;6.32;59.53;100076.38;4429956;32;19997;-94
2021/12/30 07:30:09;;;;;;;;;;;;;;;6.28;59.53;100078.16;4442332;32;19977;-94
2021/12/30 07:32:34;;;;;;;;;;;;;;;6.19;59.52;100091.16;4442624;32;19984;-96
2021/12/30 07:34:59;;;;;;;;;;;;;;;6.37;59.53;100103.91;4430237;32;20035;-96
2021/12/30 07:37:24;;;;;;;;;;;;;;;6.25;59.52;100108.34;4443295;32;20293;-95
2021/12/30 07:39:50;;;;;;;;;;;;;;;6.38;59.53;100105.63;4430275;32;20083;-95
2021/12/30 07:42:15;;;;;;;;;;;;;;;6.31;59.53;100109.13;4430644;32;19977;-92
2021/12/30 07:55:21;;;;;;;;;;;;;;;6.23;59.53;100121.28;4986239;26;19990;-81
2021/12/30 07:57:46;;;;;;;;;;;;;;;6.20;59.53;100118.72;4438941;32;20251;-83
2021/12/30 08:00:13;;;;;;;;;;;;;;;6.28;59.52;100121.25;4425353;32;20339;-82
2021/12/30 08:02:40;;;;;;;;;;;;;;;6.31;59.53;100114.31;4425097;32;20033;-83
2021/12/30 08:05:06;;;;;;;;;;;;;;;6.38;59.53;100115.09;4438035;32;20242;-84
2021/12/30 08:07:31;;;;;;;;;;;;;;;6.27;59.52;100112.63;4424088;32;19996;-85
2021/12/30 08:10:14;;;;;;;;;;;;;;;6.22;59.53;100111.81;4425378;32;20033;-95
2021/12/30 08:12:55;;;;;;;;;;;;;;;6.50;59.54;100122.75;4416724;32;19978;-91
2021/12/30 08:15:20;;;;;;;;;;;;;;;6.47;59.54;100121.06;4428518;32;20355;-93
2021/12/30 08:17:46;;;;;;;;;;;;;;;6.40;59.53;100127.19;4425158;32;19997;-90
2021/12/30 08:20:16;;;;;;;;;;;;;;;6.45;59.54;100121.97;4425757;32;20016;-92
2021/12/30 08:22:44;;;;;;;;;;;;;;;6.57;59.53;100120.97;4427034;32;19973;-94
2021/12/30 08:25:09;;;;;;;;;;;;;;;6.63;59.54;100126.97;4428338;32;20047;-91
2021/12/30 08:27:35;;;;;;;;;;;;;;;6.60;59.55;100128.69;4416299;32;20001;-95
2021/12/30 08:30:00;;;;;;;;;;;;;;;6.28;59.52;100129.00;4417943;32;20017;-91
2021/12/30 08:32:25;;;;;;;;;;;;;;;6.26;59.52;100128.16;4427328;32;20234;-94
2021/12/30 08:34:50;;;;;;;;;;;;;;;6.32;59.53;100135.84;4427706;32;20021;-93
2021/12/30 08:37:18;;;;;;;;;;;;;;;6.32;59.53;100138.44;4431799;32;20006;-95
2021/12/30 08:42:51;;;;;;;;;;;;;;;6.51;59.54;100132.25;4446288;32;19960;-96
2021/12/30 08:45:16;;;;;;;;;;;;;;;6.58;59.55;100140.78;4431043;32;19997;-94
2021/12/30 08:47:41;;;;;;;;;;;;;;;6.61;59.55;100146.78;4420166;32;20013;-92
2021/12/30 08:50:07;;;;;;;;;;;;;;;6.66;59.56;100152.78;4422431;32;20043;-89
2021/12/30 08:52:33;;;;;;;;;;;;;;;6.75;59.55;100152.69;4419265;32;20007;-87
2021/12/30 08:55:09;;;;;;;;;;;;;;;6.82;59.56;100155.22;4408831;32;20055;-95
2021/12/30 08:57:58;;;;;;;;;;;;;;;6.75;59.55;100150.09;4417203;32;20000;-96
2021/12/30 09:00:29;;;;;;;;;;;;;;;6.83;59.56;100150.00;4416131;32;19946;-95
2021/12/30 09:03:08;;;;;;;;;;;;;;;6.70;59.55;100146.72;4430808;32;19962;-96
2021/12/30 09:05:35;;;;;;;;;;;;;;;6.81;59.56;100145.72;4438959;32;19980;-96
2021/12/30 09:08:21;;;;;;;;;;;;;;;7.11;59.58;100153.19;4431977;32;19990;-96
2021/12/30 09:10:49;;;;;;;;;;;;;;;7.27;59.58;100159.03;4431642;32;19977;-96
2021/12/30 09:13:15;;;;;;;;;;;;;;;7.35;59.59;100155.47;4430693;32;19965;-96
2021/12/30 09:15:40;;;;;;;;;;;;;;;7.44;59.59;100153.63;4428150;32;20035;-90
2021/12/30 09:18:06;;;;;;;;;;;;;;;7.50;59.60;100143.19;4429265;32;19985;-95
2021/12/30 09:23:09;;;;;;;;;;;;;;;7.36;59.59;100141.66;4541132;26;20466;-89
2021/12/30 09:25:35;;;;;;;;;;;;;;;7.51;59.59;100138.00;4515730;26;19989;-93
2021/12/30 09:28:01;;;;;;;;;;;;;;;7.35;59.59;100136.50;4423315;32;19990;-90
2021/12/30 09:30:29;;;;;;;;;;;;;;;7.51;59.60;100138.00;4423035;32;19990;-93
2021/12/30 09:32:55;;;;;;;;;;;;;;;7.66;59.60;100135.19;4422701;32;20017;-92
2021/12/30 09:35:20;;;;;;;;;;;;;;;7.59;59.60;100140.50;4423334;32;20013;-95
2021/12/30 09:37:45;;;;;;;;;;;;;;;7.64;59.60;100157.69;4422611;32;20330;-87
2021/12/30 09:40:13;;;;;;;;;;;;;;;7.79;59.61;100151.41;4420436;32;20350;-87
2021/12/30 09:42:40;;;;;;;;;;;;;;;7.79;59.61;100156.59;4433108;32;19992;-87
2021/12/30 09:45:05;;;;;;;;;;;;;;;7.66;59.60;100168.88;4423471;32;20016;-87
2021/12/30 09:47:32;;;;;;;;;;;;;;;7.69;59.61;100168.84;4423816;32;19993;-89
2021/12/30 09:49:57;;;;;;;;;;;;;;;7.82;59.61;100166.09;4426421;32;20003;-88
2021/12/30 09:52:23;;;;;;;;;;;;;;;7.81;59.61;100164.38;4427842;32;20033;-90
2021/12/30 09:54:48;;;;;;;;;;;;;;;7.93;59.62;100164.19;4429258;32;20001;-95
2021/12/30 09:57:13;;;;;;;;;;;;;;;7.87;59.62;100170.31;4429553;32;19986;-95
2021/12/30 09:59:39;;;;;;;;;;;;;;;7.82;59.61;100168.69;4428291;32;20024;-88
2021/12/30 10:02:04;;;;;;;;;;;;;;;7.99;59.62;100159.75;4438635;32;20007;-84
2021/12/30 10:04:33;;;;;;;;;;;;;;;7.87;59.61;100165.13;4439634;32;20599;-92
2021/12/30 10:06:59;;;;;;;;;;;;;;;7.98;59.62;100167.56;4438712;32;20383;-89
2021/12/30 10:09:38;;;;;;;;;;;;;;;7.94;59.62;100155.53;4438688;32;20033;-89
2021/12/30 10:12:04;;;;;;;;;;;;;;;7.91;59.61;100164.22;4426725;32;20001;-88
2021/12/30 10:14:32;;;;;;;;;;;;;;;8.04;59.62;100151.06;4437642;32;20073;-89
2021/12/30 10:17:16;;;;;;;;;;;;;;;7.87;59.62;100161.69;4438201;32;19990;-90
2021/12/30 10:19:41;;;;;;;;;;;;;;;7.89;59.62;100162.53;4439133;32;19993;-95
2021/12/30 10:22:08;;;;;;;;;;;;;;;7.91;59.61;100155.59;4441792;32;19978;-96
2021/12/30 10:24:33;;;;;;;;;;;;;;;7.93;59.62;100152.09;4426915;32;19997;-92
2021/12/30 10:26:59;;;;;;;;;;;;;;;8.11;59.63;100157.88;4427128;32;20019;-90
2021/12/30 10:29:24;;;;;;;;;;;;;;;8.09;59.63;100162.22;4426058;32;19997;-91
2021/12/30 10:31:50;;;;;;;;;;;;;;;8.15;59.63;100157.78;4425573;32;20005;-94
2021/12/30 10:34:17;;;;;;;;;;;;;;;8.05;59.62;100160.56;4425515;32;20011;-88
2021/12/30 10:36:43;;;;;;;;;;;;;;;7.97;59.62;100158.06;4437741;32;20008;-89
2021/12/30 10:39:23;;;;;;;;;;;;;;;8.01;59.63;100154.56;4425906;32;19985;-92
2021/12/30 10:41:50;;;;;;;;;;;;;;;7.80;59.61;100162.63;4433255;32;19969;-93
2021/12/30 10:44:18;;;;;;;;;;;;;;;7.96;59.62;100164.12;4424188;32;20279;-95
2021/12/30 10:46:43;;;;;;;;;;;;;;;8.03;59.62;100160.56;4410782;32;19997;-89
2021/12/30 10:49:12;;;;;;;;;;;;;;;8.25;59.64;100156.75;4424460;32;19981;-91
2021/12/30 10:51:40;;;;;;;;;;;;;;;8.21;59.63;100149.06;4422792;32;19989;-92
2021/12/30 10:54:09;;;;;;;;;;;;;;;8.26;59.64;100144.66;4422571;32;19994;-90
2021/12/30 10:56:35;;;;;;;;;;;;;;;8.23;59.64;100140.38;4422102;32;20012;-91
2021/12/30 10:59:11;;;;;;;;;;;;;;;8.48;59.64;100142.59;4409838;32;19986;-90
2021/12/30 11:01:37;;;;;;;;;;;;;;;8.27;59.63;100144.63;4422172;32;20061;-91
2021/12/30 11:04:03;;;;;;;;;;;;;;;8.24;59.64;100139.50;4409617;32;20638;-88
2021/12/30 11:06:28;;;;;;;;;;;;;;;8.09;59.63;100129.38;4424018;32;19982;-90
2021/12/30 11:09:04;;;;;;;;;;;;;;;7.96;59.62;100130.44;4414315;32;20390;-90
2021/12/30 11:11:35;;;;;;;;;;;;;;;8.16;59.63;100125.81;4416800;32;20024;-94
2021/12/30 11:14:08;;;;;;;;;;;;;;;8.25;59.63;100133.41;4422271;32;19998;-89
2021/12/30 11:16:34;;;;;;;;;;;;;;;8.36;59.64;100137.62;4422310;32;20016;-89
2021/12/30 11:18:59;;;;;;;;;;;;;;;8.16;59.63;100133.59;4423630;32;19970;-87
2021/12/30 11:21:41;;;;;;;;;;;;;;;8.22;59.63;100130.88;4422001;32;20056;-89
2021/12/30 11:24:12;;;;;;;;;;;;;;;8.25;59.63;100125.63;4423463;32;19986;-92
2021/12/30 11:26:46;;;;;;;;;;;;;;;8.08;59.63;100132.84;4410774;32;20039;-94
2021/12/30 11:29:11;;;;;;;;;;;;;;;7.97;59.61;100122.63;4410931;32;19982;-93
2021/12/30 11:31:36;;;;;;;;;;;;;;;7.94;59.62;100129.59;4409289;32;19974;-89
2021/12/30 11:34:02;;;;;;;;;;;;;;;8.00;59.63;100129.50;4408924;32;20273;-86
2021/12/30 11:36:30;;;;;;;;;;;;;;;8.22;59.63;100151.63;4421639;32;19985;-84
2021/12/30 11:38:58;;;;;;;;;;;;;;;8.06;59.62;100144.12;4422615;32;20326;-88
2021/12/30 11:41:24;;;;;;;;;;;;;;;8.11;59.63;100140.59;4426351;32;19996;-87
2021/12/30 11:47:15;;;;;;;;;;;;;;;8.42;59.64;100138.38;4438768;32;20003;-91
2021/12/30 11:49:55;;;;;;;;;;;;;;;8.36;59.64;100132.44;4438601;32;20356;-93
2021/12/30 11:52:39;;;;;;;;;;;;;;;8.43;59.64;100129.69;4436165;32;19978;-89
2021/12/30 11:55:12;;;;;;;;;;;;;;;8.46;59.65;100124.47;4438825;32;19997;-90
2021/12/30 11:57:39;;;;;;;;;;;;;;;8.52;59.66;100128.72;4435938;32;19993;-92
2021/12/30 12:00:28;;;;;;;;;;;;;;;8.48;59.65;100121.84;4425524;32;20064;-89
2021/12/30 12:02:55;;;;;;;;;;;;;;;8.50;59.65;100112.28;4439129;32;19986;-91
2021/12/30 12:05:40;;;;;;;;;;;;;;;8.34;59.64;100110.84;4437094;32;20001;-89
2021/12/30 12:08:05;;;;;;;;;;;;;;;8.38;59.65;100107.31;4437780;32;20013;-91
2021/12/30 12:10:33;;;;;;;;;;;;;;;8.29;59.63;100114.34;4425804;32;20000;-90
2021/12/30 12:13:21;;;;;;;;;;;;;;;8.36;59.64;100119.47;4439762;32;20604;-95
2021/12/30 12:15:47;;;;;;;;;;;;;;;8.39;59.65;100120.25;4439325;32;19961;-95
2021/12/30 12:18:12;;;;;;;;;;;;;;;8.37;59.64;100118.59;4428347;32;20027;-95
2021/12/30 12:20:41;;;;;;;;;;;;;;;8.23;59.64;100127.41;4427511;32;19997;-94
2021/12/30 12:23:25;;;;;;;;;;;;;;;8.38;59.65;100130.66;4426267;32;20043;-93
2021/12/30 12:26:05;;;;;;;;;;;;;;;8.47;59.65;100131.34;4440498;32;20009;-96
2021/12/30 12:28:30;;;;;;;;;;;;;;;8.41;59.65;100130.62;4438256;32;19965;-91
2021/12/30 12:30:56;;;;;;;;;;;;;;;8.39;59.65;100133.25;4423552;32;19982;-88
2021/12/30 12:33:26;;;;;;;;;;;;;;;8.45;59.65;100143.50;4425089;32;19977;-91
2021/12/30 12:36:25;;;;;;;;;;;;;;;8.57;59.65;100134.66;4438010;32;20016;-94
2021/12/30 12:38:53;;;;;;;;;;;;;;;8.65;59.65;100134.50;4425096;32;19978;-96
2021/12/30 12:49:34;;;;;;;;;;;;;;;8.41;59.64;100131.47;4440723;32;20030;-95
2021/12/30 12:51:59;;;;;;;;;;;;;;;8.23;59.64;100135.19;4438052;32;19994;-88
2021/12/30 12:54:32;;;;;;;;;;;;;;;8.10;59.63;100132.84;4436828;32;19989;-91
2021/12/30 12:57:03;;;;;;;;;;;;;;;8.23;59.64;100148.16;4438233;32;20446;-93
2021/12/30 12:59:29;;;;;;;;;;;;;;;8.19;59.63;100140.44;4436805;32;19997;-92
2021/12/30 13:01:54;;;;;;;;;;;;;;;8.35;59.64;100152.34;4436817;32;19989;-91
2021/12/30 13:04:19;;;;;;;;;;;;;;;8.38;59.65;100161.78;4437324;32;19981;-89
2021/12/30 13:06:45;;;;;;;;;;;;;;;8.27;59.64;100157.59;4437237;32;20310;-89
2021/12/30 13:09:14;;;;;;;;;;;;;;;8.39;59.65;100153.13;4438033;32;20341;-94
2021/12/30 13:11:42;;;;;;;;;;;;;;;8.46;59.65;100142.63;4424428;32;20026;-91
2021/12/30 13:14:15;;;;;;;;;;;;;;;8.33;59.64;100146.28;4426303;32;19977;-90
2021/12/30 13:16:40;;;;;;;;;;;;;;;8.42;59.64;100151.34;4439637;32;20065;-92
2021/12/30 13:19:08;;;;;;;;;;;;;;;8.47;59.65;100152.09;4425138;32;19994;-96
2021/12/30 13:21:38;;;;;;;;;;;;;;;8.35;59.64;100156.66;4436871;32;19985;-91
2021/12/30 13:24:03;;;;;;;;;;;;;;;8.39;59.65;100155.72;4421784;32;20293;-91